Time;durP1;ratioP1;P1;durP2;ratioP2;P2;SDS_P1;SDS_P2;PMS_P1;PMS_P2;Temp;Humidity;BMP_temperature;BMP_pressure;BME280_temperature;BME280_humidity;BME280_pressure;Samples;Min_cycle;Max_cycle;Signal;HPM_P1;HPM_P2
2022/03/30 00:01:26;;;;;;;34.70;15.03;;;11.00;83.50;;;;;;5012053;28;20033;-83
2022/03/30 00:03:52;;;;;;;31.97;15.17;;;11.00;83.70;;;;;;5013479;28;20036;-83
2022/03/30 00:06:18;;;;;;;33.33;14.37;;;11.00;83.90;;;;;;5013243;28;20034;-82
2022/03/30 00:08:44;;;;;;;30.87;15.37;;;11.00;83.80;;;;;;5012055;28;20053;-82
2022/03/30 00:11:11;;;;;;;30.27;14.53;;;11.00;83.80;;;;;;5013294;28;20794;-82
2022/03/30 00:13:38;;;;;;;31.33;15.23;;;11.00;83.90;;;;;;5013104;28;20077;-83
2022/03/30 00:16:05;;;;;;;28.90;13.47;;;11.00;83.80;;;;;;5013462;28;20026;-85
2022/03/30 00:18:31;;;;;;;28.43;14.40;;;11.00;83.90;;;;;;5013153;28;20113;-83
2022/03/30 00:20:57;;;;;;;29.63;14.90;;;11.00;83.90;;;;;;5013353;28;20041;-83
2022/03/30 00:23:23;;;;;;;29.83;14.73;;;11.00;83.70;;;;;;5011187;28;20042;-83
2022/03/30 00:25:48;;;;;;;29.43;15.27;;;11.00;83.90;;;;;;5013009;28;20062;-83
2022/03/30 00:28:14;;;;;;;29.27;14.07;;;10.90;84.10;;;;;;5011790;28;20038;-83
2022/03/30 00:30:40;;;;;;;27.00;15.23;;;10.90;84.20;;;;;;5011869;28;20037;-83
2022/03/30 00:33:06;;;;;;;29.93;14.73;;;10.90;84.20;;;;;;5012995;28;20030;-83
2022/03/30 00:35:31;;;;;;;33.20;14.77;;;10.90;84.00;;;;;;5013039;28;20478;-83
2022/03/30 00:37:57;;;;;;;31.77;15.20;;;10.90;84.00;;;;;;5011641;28;20029;-83
2022/03/30 00:40:23;;;;;;;28.27;15.47;;;10.90;84.70;;;;;;5011668;28;20030;-83
2022/03/30 00:42:49;;;;;;;30.17;14.77;;;10.90;84.20;;;;;;5012821;28;20528;-83
2022/03/30 00:45:17;;;;;;;26.17;14.53;;;10.80;84.20;;;;;;5012978;28;20040;-83
2022/03/30 00:47:44;;;;;;;25.50;14.23;;;10.80;84.20;;;;;;5011610;28;20026;-83
2022/03/30 00:50:13;;;;;;;29.07;14.77;;;10.80;84.30;;;;;;5012946;28;20034;-82
2022/03/30 00:52:39;;;;;;;31.30;14.37;;;10.80;84.30;;;;;;5012485;28;20072;-82
2022/03/30 00:55:06;;;;;;;35.77;15.53;;;10.80;84.30;;;;;;5011291;28;20760;-86
2022/03/30 00:57:46;;;;;;;;;;;;;;;;;;;;;
2022/03/30 01:00:59;;;;;;;33.47;15.50;;;10.80;84.50;;;;;;4942641;29;20137;-90
2022/03/30 01:03:27;;;;;;;32.33;14.73;;;10.70;84.30;;;;;;4943763;28;20030;-82
2022/03/30 01:05:53;;;;;;;35.70;15.50;;;10.70;84.50;;;;;;4992624;28;20029;-81
2022/03/30 01:08:19;;;;;;;31.90;14.77;;;10.70;84.70;;;;;;4992396;28;20019;-82
2022/03/30 01:10:45;;;;;;;31.47;15.10;;;10.70;84.90;;;;;;4992470;28;20027;-81
2022/03/30 01:13:12;;;;;;;29.37;14.00;;;10.60;84.90;;;;;;4992277;28;20034;-82
2022/03/30 01:15:39;;;;;;;33.53;14.73;;;10.60;85.00;;;;;;4992305;28;20030;-82
2022/03/30 01:18:05;;;;;;;34.57;16.07;;;10.60;85.10;;;;;;4992357;28;20037;-82
2022/03/30 01:20:32;;;;;;;33.23;14.93;;;10.60;85.20;;;;;;4992404;28;20037;-82
2022/03/30 01:22:57;;;;;;;30.47;14.33;;;10.50;85.20;;;;;;4991961;28;20453;-82
2022/03/30 01:25:23;;;;;;;34.37;16.07;;;10.50;85.40;;;;;;4992171;28;20031;-82
2022/03/30 01:27:49;;;;;;;34.90;15.40;;;10.50;85.20;;;;;;5007202;28;20046;-82
2022/03/30 01:33:05;;;;;;;28.93;14.00;;;10.50;85.70;;;;;;4991942;28;20038;-82
2022/03/30 01:35:30;;;;;;;27.93;13.40;;;10.50;85.70;;;;;;4991484;28;20474;-82
2022/03/30 01:37:56;;;;;;;28.23;14.53;;;10.50;85.80;;;;;;5007035;28;20030;-82
2022/03/30 01:40:23;;;;;;;31.27;15.00;;;10.40;85.80;;;;;;4991991;28;20505;-82
2022/03/30 01:42:48;;;;;;;28.60;14.90;;;10.40;85.80;;;;;;4991670;28;20041;-82
2022/03/30 01:45:16;;;;;;;36.37;15.10;;;10.40;85.90;;;;;;4992112;28;20034;-82
2022/03/30 01:47:59;;;;;;;28.23;14.10;;;10.40;86.00;;;;;;5009614;28;20048;-82
2022/03/30 01:50:26;;;;;;;32.67;14.90;;;10.40;86.20;;;;;;5010054;28;20033;-83
2022/03/30 01:52:52;;;;;;;32.40;15.00;;;10.40;86.20;;;;;;5010045;28;20482;-82
2022/03/30 01:55:19;;;;;;;31.37;14.87;;;10.30;86.30;;;;;;5010067;28;20026;-82
2022/03/30 01:57:45;;;;;;;34.77;15.17;;;10.30;86.40;;;;;;5011485;28;20036;-82
2022/03/30 02:00:13;;;;;;;29.17;14.00;;;10.30;86.30;;;;;;5010287;28;20033;-82
2022/03/30 02:02:40;;;;;;;31.07;14.53;;;10.30;86.40;;;;;;5011113;28;20030;-82
2022/03/30 02:05:10;;;;;;;29.80;15.17;;;10.30;86.60;;;;;;5011225;28;20076;-82
2022/03/30 02:07:37;;;;;;;28.90;14.97;;;10.30;86.50;;;;;;5010927;28;20722;-82
2022/03/30 02:10:05;;;;;;;32.60;15.30;;;10.40;86.60;;;;;;5011284;28;20088;-83
2022/03/30 02:12:30;;;;;;;30.83;14.73;;;10.30;86.60;;;;;;5010978;28;20072;-83
2022/03/30 02:14:57;;;;;;;32.87;15.37;;;10.20;86.70;;;;;;5011343;28;20493;-82
2022/03/30 02:17:25;;;;;;;28.40;15.07;;;10.20;86.90;;;;;;5011009;28;20121;-82
2022/03/30 02:19:52;;;;;;;36.10;15.90;;;10.20;86.90;;;;;;5011076;28;20030;-83
2022/03/30 02:22:18;;;;;;;30.83;14.90;;;10.20;86.80;;;;;;5027339;23;20140;-81
2022/03/30 02:24:43;;;;;;;35.40;15.23;;;10.10;86.90;;;;;;5028933;28;20695;-81
2022/03/30 02:27:09;;;;;;;31.37;15.67;;;10.10;87.10;;;;;;5030213;28;20394;-81
2022/03/30 02:29:35;;;;;;;31.43;15.90;;;10.10;87.20;;;;;;5030572;28;20087;-81
2022/03/30 02:32:02;;;;;;;36.57;15.80;;;10.10;87.30;;;;;;5030320;28;20041;-81
2022/03/30 02:34:28;;;;;;;30.63;15.13;;;10.10;87.40;;;;;;5030518;28;20117;-81
2022/03/30 02:36:53;;;;;;;31.63;15.23;;;10.00;87.40;;;;;;5028817;28;20176;-81
2022/03/30 02:39:19;;;;;;;28.43;15.67;;;10.00;87.80;;;;;;5030523;28;20025;-81
2022/03/30 02:41:46;;;;;;;35.63;16.13;;;9.90;87.80;;;;;;5030437;28;20033;-81
2022/03/30 02:44:13;;;;;;;35.43;16.37;;;10.00;87.90;;;;;;5030640;28;20021;-81
2022/03/30 02:46:39;;;;;;;36.50;15.90;;;9.90;87.90;;;;;;5033792;28;20068;-81
2022/03/30 02:49:05;;;;;;;32.90;16.00;;;9.90;88.50;;;;;;5034846;28;20107;-81
2022/03/30 02:51:30;;;;;;;28.90;16.13;;;9.90;87.70;;;;;;5034648;28;20038;-81
2022/03/30 02:53:57;;;;;;;35.70;17.07;;;9.90;87.80;;;;;;5034552;28;20057;-81
2022/03/30 02:56:22;;;;;;;35.43;16.67;;;9.80;87.90;;;;;;5034558;28;20496;-81
2022/03/30 02:58:48;;;;;;;32.97;16.33;;;9.80;88.10;;;;;;5033580;28;20120;-81
2022/03/30 03:01:14;;;;;;;35.37;16.30;;;9.80;88.40;;;;;;5034697;28;20578;-81
2022/03/30 03:03:40;;;;;;;34.13;15.40;;;9.80;88.40;;;;;;5034231;28;20116;-81
2022/03/30 03:06:06;;;;;;;33.73;15.97;;;9.70;88.50;;;;;;5034280;28;20079;-81
2022/03/30 03:08:32;;;;;;;31.33;15.40;;;9.80;88.50;;;;;;5034396;28;20041;-81
2022/03/30 03:10:58;;;;;;;35.93;15.83;;;9.80;88.50;;;;;;5034387;28;20449;-81
2022/03/30 03:13:25;;;;;;;34.50;16.23;;;9.70;88.40;;;;;;5034177;28;20033;-81
2022/03/30 03:15:51;;;;;;;31.73;16.23;;;9.70;88.70;;;;;;5032731;28;20397;-81
2022/03/30 03:18:18;;;;;;;34.60;16.60;;;9.70;88.90;;;;;;5033869;28;20485;-81
2022/03/30 03:20:45;;;;;;;32.67;15.60;;;9.60;89.00;;;;;;5033932;28;20488;-81
2022/03/30 03:23:12;;;;;;;30.43;15.50;;;9.60;89.20;;;;;;5033764;28;20037;-81
2022/03/30 03:25:40;;;;;;;32.17;14.20;;;9.50;89.20;;;;;;5033928;28;20022;-81
2022/03/30 03:28:07;;;;;;;32.80;15.33;;;9.50;89.30;;;;;;5033461;28;20044;-81
2022/03/30 03:30:33;;;;;;;29.20;14.47;;;9.50;89.50;;;;;;5032354;28;20631;-81
2022/03/30 03:32:59;;;;;;;30.17;15.30;;;9.50;89.30;;;;;;5015631;28;20029;-81
2022/03/30 03:35:25;;;;;;;34.50;15.27;;;9.50;89.30;;;;;;5033498;28;20181;-81
2022/03/30 03:37:51;;;;;;;36.87;15.43;;;9.40;89.60;;;;;;5031801;28;20044;-81
2022/03/30 03:40:17;;;;;;;32.97;15.53;;;9.40;89.60;;;;;;5033294;28;20025;-81
2022/03/30 03:42:44;;;;;;;33.50;14.83;;;9.30;89.60;;;;;;5033428;28;20035;-84
2022/03/30 03:45:10;;;;;;;37.73;16.43;;;9.30;89.80;;;;;;5032439;28;20436;-79
2022/03/30 03:47:36;;;;;;;34.97;16.17;;;9.30;89.60;;;;;;5033514;28;20026;-81
2022/03/30 03:50:04;;;;;;;33.67;15.43;;;9.30;89.60;;;;;;5033316;28;20034;-82
2022/03/30 03:52:31;;;;;;;33.63;15.30;;;9.30;89.60;;;;;;5030824;28;20036;-84
2022/03/30 03:54:57;;;;;;;38.37;15.27;;;9.20;89.60;;;;;;5027026;28;20117;-80
2022/03/30 03:57:22;;;;;;;33.23;15.27;;;9.20;89.80;;;;;;5029151;28;20021;-80
2022/03/30 03:59:48;;;;;;;31.70;14.13;;;9.20;89.70;;;;;;5032523;28;20036;-87
2022/03/30 04:02:14;;;;;;;33.57;15.07;;;9.20;89.70;;;;;;5032115;28;20084;-80
2022/03/30 04:04:40;;;;;;;31.77;14.97;;;9.10;89.60;;;;;;5032069;28;20152;-80
2022/03/30 04:07:06;;;;;;;29.83;14.53;;;9.20;89.60;;;;;;5046388;28;20488;-80
2022/03/30 04:09:32;;;;;;;30.73;14.33;;;9.10;89.80;;;;;;5030750;28;20068;-80
2022/03/30 04:11:58;;;;;;;31.43;15.17;;;9.10;89.90;;;;;;5031663;28;20037;-80
2022/03/30 04:14:24;;;;;;;33.27;15.10;;;9.10;89.90;;;;;;5031869;28;20037;-80
2022/03/30 04:16:50;;;;;;;36.20;15.67;;;9.10;89.90;;;;;;5031363;28;20057;-80
2022/03/30 04:19:16;;;;;;;34.40;14.87;;;9.00;90.20;;;;;;5031178;28;20055;-80
2022/03/30 04:21:42;;;;;;;34.20;15.13;;;9.10;89.90;;;;;;5031668;28;20029;-80
2022/03/30 04:24:09;;;;;;;35.47;15.90;;;9.00;89.80;;;;;;5031169;28;20037;-80
2022/03/30 04:26:35;;;;;;;33.33;15.50;;;8.90;90.10;;;;;;5029477;28;20037;-80
2022/03/30 04:29:00;;;;;;;34.87;15.37;;;8.90;90.20;;;;;;5030403;28;20069;-80
2022/03/30 04:31:26;;;;;;;32.00;14.80;;;8.90;90.20;;;;;;5031329;28;20497;-80
2022/03/30 04:33:53;;;;;;;30.17;15.27;;;8.80;90.20;;;;;;5031503;28;20036;-80
2022/03/30 04:36:19;;;;;;;34.50;15.77;;;8.80;90.30;;;;;;5031245;28;20438;-80
2022/03/30 04:38:45;;;;;;;31.57;14.80;;;8.80;90.20;;;;;;5031266;28;20109;-80
2022/03/30 04:41:11;;;;;;;32.13;15.70;;;8.70;90.30;;;;;;5030815;28;20041;-80
2022/03/30 04:43:37;;;;;;;37.43;15.47;;;8.70;90.30;;;;;;5031177;28;20342;-82
2022/03/30 04:46:03;;;;;;;32.47;15.87;;;8.80;90.20;;;;;;5030411;28;20033;-83
2022/03/30 04:48:29;;;;;;;34.33;17.20;;;8.70;90.30;;;;;;5031496;28;20104;-82
2022/03/30 04:50:54;;;;;;;37.33;15.53;;;8.70;90.40;;;;;;5031499;28;20041;-81
2022/03/30 04:53:20;;;;;;;35.20;16.37;;;8.70;90.50;;;;;;5030671;28;20025;-86
2022/03/30 04:55:46;;;;;;;34.47;16.63;;;8.60;90.60;;;;;;5030315;28;20508;-81
2022/03/30 04:58:12;;;;;;;34.67;16.77;;;8.60;90.60;;;;;;5030836;28;20029;-82
2022/03/30 05:00:37;;;;;;;36.53;16.83;;;8.60;90.60;;;;;;5029775;28;20147;-85
2022/03/30 05:03:03;;;;;;;39.57;17.07;;;8.60;90.50;;;;;;5030819;28;20132;-81
2022/03/30 05:05:29;;;;;;;39.97;17.70;;;8.60;90.50;;;;;;5030710;28;20064;-80
2022/03/30 05:07:55;;;;;;;34.10;16.17;;;8.50;90.50;;;;;;5030332;28;20552;-80
2022/03/30 05:10:21;;;;;;;34.90;17.27;;;8.50;90.60;;;;;;5030012;28;20056;-82
2022/03/30 05:12:47;;;;;;;33.80;16.33;;;8.60;90.60;;;;;;5030900;28;20068;-88
2022/03/30 05:15:13;;;;;;;36.73;16.20;;;8.50;90.60;;;;;;5029324;28;20026;-83
2022/03/30 05:17:43;;;;;;;33.80;16.03;;;8.50;90.50;;;;;;5028884;28;20079;-82
2022/03/30 05:20:14;;;;;;;37.87;17.47;;;8.40;90.60;;;;;;5030332;28;20068;-82
2022/03/30 05:22:40;;;;;;;39.00;17.40;;;8.40;90.70;;;;;;5028856;28;20037;-82
2022/03/30 05:25:07;;;;;;;35.97;17.57;;;8.40;90.50;;;;;;5028153;28;20030;-82
2022/03/30 05:27:32;;;;;;;38.53;17.43;;;8.40;90.60;;;;;;5029881;28;20112;-82
2022/03/30 05:29:58;;;;;;;38.77;17.60;;;8.30;90.70;;;;;;5029696;28;20443;-82
2022/03/30 05:32:24;;;;;;;36.03;17.63;;;8.40;90.80;;;;;;5029884;28;20029;-82
2022/03/30 05:34:50;;;;;;;37.90;16.93;;;8.30;90.80;;;;;;5029627;28;20520;-82
2022/03/30 05:37:15;;;;;;;43.10;17.67;;;8.30;90.90;;;;;;5030472;28;20062;-82
2022/03/30 05:39:42;;;;;;;37.10;17.53;;;8.30;90.90;;;;;;5029372;28;20036;-82
2022/03/30 05:42:09;;;;;;;36.20;16.67;;;8.30;90.70;;;;;;5030337;28;20374;-82
2022/03/30 05:44:35;;;;;;;37.10;18.03;;;8.20;91.00;;;;;;5029903;28;20041;-82
2022/03/30 05:47:01;;;;;;;36.33;17.70;;;8.20;90.80;;;;;;5030537;28;20044;-82
2022/03/30 05:49:27;;;;;;;39.10;18.13;;;8.20;91.00;;;;;;5029934;28;20033;-82
2022/03/30 05:51:52;;;;;;;36.43;18.40;;;8.20;91.00;;;;;;5045430;28;20132;-82
2022/03/30 05:54:18;;;;;;;42.43;20.63;;;8.20;91.00;;;;;;5027469;28;20091;-82
2022/03/30 05:57:02;;;;;;;45.37;20.10;;;8.20;90.80;;;;;;5030189;28;20102;-82
2022/03/30 05:59:37;;;;;;;44.93;19.70;;;8.20;90.80;;;;;;5028543;28;20049;-82
2022/03/30 06:02:05;;;;;;;44.53;17.70;;;8.20;90.80;;;;;;5030236;28;20041;-82
2022/03/30 06:04:31;;;;;;;39.83;18.27;;;8.20;90.90;;;;;;5029642;28;20038;-82
2022/03/30 06:06:58;;;;;;;43.80;17.93;;;8.20;90.70;;;;;;5045368;28;20128;-82
2022/03/30 06:09:24;;;;;;;39.37;18.43;;;8.30;90.70;;;;;;5029112;28;20477;-82
2022/03/30 06:11:49;;;;;;;46.57;20.10;;;8.20;90.60;;;;;;5029490;28;20039;-81
2022/03/30 06:14:15;;;;;;;38.47;17.87;;;8.30;90.70;;;;;;5044056;28;20037;-83
2022/03/30 06:16:44;;;;;;;36.47;18.13;;;8.30;90.60;;;;;;5044717;28;20045;-83
2022/03/30 06:19:11;;;;;;;38.90;18.50;;;8.30;90.70;;;;;;5045304;28;20099;-82
2022/03/30 06:21:37;;;;;;;33.23;17.37;;;8.30;90.70;;;;;;5032617;28;20035;-84
2022/03/30 06:24:03;;;;;;;41.10;17.83;;;8.20;90.60;;;;;;5044716;28;20447;-82
2022/03/30 06:26:29;;;;;;;32.77;16.73;;;8.30;90.70;;;;;;5027803;28;20481;-80
2022/03/30 06:28:56;;;;;;;34.90;17.10;;;8.30;90.70;;;;;;5030576;28;20049;-83
2022/03/30 06:31:22;;;;;;;43.40;17.43;;;8.20;90.70;;;;;;5028664;28;20034;-83
2022/03/30 06:33:49;;;;;;;35.93;16.43;;;8.30;90.70;;;;;;5030324;28;20041;-88
2022/03/30 06:36:16;;;;;;;39.67;17.07;;;8.30;90.80;;;;;;5028971;28;20129;-88
2022/03/30 06:38:42;;;;;;;36.23;17.20;;;8.30;91.00;;;;;;5028108;28;20109;-86
2022/03/30 06:41:09;;;;;;;35.57;16.70;;;8.30;91.30;;;;;;5027701;28;20022;-82
2022/03/30 06:43:42;;;;;;;36.40;16.43;;;8.20;91.40;;;;;;5029662;28;20037;-83
2022/03/30 06:46:11;;;;;;;38.57;18.10;;;8.20;91.40;;;;;;5028333;28;20087;-83
2022/03/30 06:48:37;;;;;;;35.97;17.52;;;8.10;91.20;;;;;;5029748;28;20090;-83
2022/03/30 06:51:03;;;;;;;41.23;16.30;;;8.30;91.60;;;;;;5029706;28;20029;-83
2022/03/30 06:53:29;;;;;;;36.27;16.53;;;8.20;91.30;;;;;;5028856;28;20029;-83
2022/03/30 06:55:56;;;;;;;34.53;16.63;;;8.30;91.80;;;;;;5030437;28;20403;-85
2022/03/30 06:58:22;;;;;;;36.47;15.73;;;8.40;91.40;;;;;;5031264;28;20025;-90
2022/03/30 07:00:49;;;;;;;35.77;16.63;;;8.40;91.10;;;;;;5045293;28;20026;-87
2022/03/30 07:03:15;;;;;;;36.67;16.87;;;8.40;91.10;;;;;;5045024;28;20492;-87
2022/03/30 07:05:41;;;;;;;32.17;17.10;;;8.50;91.00;;;;;;5045125;28;20037;-88
2022/03/30 07:10:51;;;;;;;37.70;17.00;;;8.40;90.90;;;;;;5028981;28;20501;-88
2022/03/30 07:13:17;;;;;;;31.27;16.27;;;8.50;91.30;;;;;;5028343;28;20033;-87
2022/03/30 07:15:43;;;;;;;32.83;16.23;;;8.50;91.20;;;;;;5029553;28;20030;-86
2022/03/30 07:18:08;;;;;;;35.37;16.50;;;8.50;90.80;;;;;;5029484;28;20033;-84
2022/03/30 07:20:35;;;;;;;35.47;15.93;;;8.60;90.60;;;;;;5044921;28;20026;-84
2022/03/30 07:23:02;;;;;;;37.07;16.73;;;8.70;90.60;;;;;;5028762;28;20512;-82
2022/03/30 07:25:29;;;;;;;41.23;17.30;;;8.70;90.70;;;;;;5028481;28;20036;-83
2022/03/30 07:27:58;;;;;;;35.07;17.17;;;8.70;90.90;;;;;;5029020;28;20033;-83
2022/03/30 07:30:24;;;;;;;33.63;16.58;;;8.70;90.70;;;;;;5029321;28;20029;-88
2022/03/30 07:32:52;;;;;;;31.37;15.93;;;8.80;90.50;;;;;;5031079;28;20116;-83
2022/03/30 07:48:48;;;;;;;31.03;15.77;;;9.00;89.30;;;;;;5120833;23;20050;-85
2022/03/30 07:51:14;;;;;;;37.27;16.70;;;9.10;89.40;;;;;;4973049;28;20034;-85
2022/03/30 07:53:40;;;;;;;37.10;16.47;;;9.10;89.30;;;;;;4973801;28;20450;-83
2022/03/30 07:59:20;;;;;;;32.20;15.83;;;9.30;88.30;;;;;;4972580;28;20065;-71
2022/03/30 08:01:46;;;;;;;32.37;14.57;;;9.30;88.40;;;;;;4974287;28;20031;-71
2022/03/30 08:04:12;;;;;;;32.63;14.17;;;9.30;87.60;;;;;;5015248;23;20054;-84
2022/03/30 08:06:38;;;;;;;28.07;13.80;;;9.30;87.90;;;;;;5011415;28;20084;-81
2022/03/30 08:09:04;;;;;;;35.67;14.47;;;9.30;87.90;;;;;;5013270;28;20036;-84
2022/03/30 08:11:30;;;;;;;27.07;12.90;;;9.30;89.20;;;;;;5012422;28;20091;-81
2022/03/30 08:13:56;;;;;;;29.63;13.83;;;9.40;89.20;;;;;;5021077;28;20036;-81
2022/03/30 08:16:23;;;;;;;36.40;14.23;;;9.40;89.00;;;;;;5014587;28;20025;-82
2022/03/30 08:18:48;;;;;;;31.73;13.80;;;9.40;88.70;;;;;;5032359;28;20026;-80
2022/03/30 08:23:58;;;;;;;31.27;13.17;;;9.50;87.90;;;;;;5032569;28;20472;-81
2022/03/30 08:26:24;;;;;;;22.73;12.57;;;9.50;86.80;;;;;;5014670;28;20061;-86
2022/03/30 08:28:50;;;;;;;30.93;13.57;;;9.50;87.00;;;;;;5014761;28;20041;-83
2022/03/30 08:31:16;;;;;;;28.47;13.67;;;9.50;86.00;;;;;;5032120;28;20064;-83
2022/03/30 08:33:42;;;;;;;25.10;12.10;;;9.50;86.30;;;;;;5031635;28;20041;-82
2022/03/30 08:36:08;;;;;;;26.93;12.93;;;9.50;86.50;;;;;;5031895;28;20029;-85
2022/03/30 08:38:34;;;;;;;27.57;12.67;;;9.60;86.00;;;;;;5014549;28;20033;-80
2022/03/30 08:41:00;;;;;;;30.10;13.33;;;9.60;86.10;;;;;;5031897;28;20030;-80
2022/03/30 08:43:26;;;;;;;28.53;13.17;;;9.60;86.60;;;;;;5029276;28;20572;-79
2022/03/30 08:45:56;;;;;;;32.27;13.67;;;9.70;86.50;;;;;;5031803;28;20061;-79
2022/03/30 08:48:22;;;;;;;28.50;13.90;;;9.70;86.80;;;;;;5031749;28;20037;-79
2022/03/30 08:50:50;;;;;;;28.33;12.10;;;9.70;87.30;;;;;;5032179;28;20451;-82
2022/03/30 08:53:16;;;;;;;24.23;12.63;;;10.00;89.90;;;;;;5031973;28;20412;-82
2022/03/30 08:55:43;;;;;;;32.97;13.03;;;10.10;85.00;;;;;;5032001;28;20037;-85
2022/03/30 08:58:09;;;;;;;26.27;12.33;;;10.10;84.70;;;;;;5024098;28;20040;-84
2022/03/30 09:00:34;;;;;;;28.13;12.77;;;10.10;84.00;;;;;;4994404;28;20481;-82
2022/03/30 09:03:01;;;;;;;26.83;11.83;;;10.10;83.70;;;;;;5011228;28;20040;-83
2022/03/30 09:05:32;;;;;;;22.00;10.90;;;10.10;84.30;;;;;;5011823;28;20034;-82
2022/03/30 09:08:20;;;;;;;21.30;10.90;;;10.10;83.70;;;;;;5010619;28;20045;-81
2022/03/30 09:10:50;;;;;;;24.37;10.70;;;10.10;82.90;;;;;;5011823;28;20025;-82
2022/03/30 09:13:19;;;;;;;23.30;11.23;;;10.20;83.20;;;;;;5011486;28;20034;-81
2022/03/30 09:15:47;;;;;;;21.70;10.18;;;10.20;82.70;;;;;;5011848;28;20667;-82
2022/03/30 09:18:16;;;;;;;19.53;10.30;;;10.20;82.80;;;;;;5011588;28;20568;-81
2022/03/30 09:20:46;;;;;;;21.88;10.50;;;10.20;82.30;;;;;;5011656;28;20280;-82
2022/03/30 09:23:12;;;;;;;;;;;10.20;82.80;;;;;;4994144;28;20037;-82
2022/03/30 09:25:42;;;;;;;23.03;10.90;;;10.20;82.50;;;;;;5011746;28;19917;-79
2022/03/30 09:28:09;;;;;;;18.80;9.68;;;10.30;82.60;;;;;;5011373;28;20032;-82
2022/03/30 09:30:35;;;;;;;21.17;10.37;;;10.30;82.70;;;;;;5011555;28;20037;-82
2022/03/30 09:33:01;;;;;;;23.37;11.00;;;10.40;83.10;;;;;;5011331;28;20117;-82
2022/03/30 09:35:37;;;;;;;24.53;11.57;;;10.30;83.00;;;;;;5011338;28;20059;-82
2022/03/30 09:38:06;;;;;;;24.37;11.57;;;10.40;82.60;;;;;;5010257;28;20026;-83
2022/03/30 09:40:40;;;;;;;22.23;11.45;;;10.40;82.70;;;;;;5011087;28;20100;-82
2022/03/30 09:43:14;;;;;;;24.03;11.77;;;10.50;83.20;;;;;;5011281;28;20400;-83
2022/03/30 09:45:40;;;;;;;23.53;10.57;;;10.50;83.10;;;;;;4993714;28;20505;-82
2022/03/30 09:48:32;;;;;;;24.37;11.93;;;10.50;82.30;;;;;;5010319;28;20029;-83
2022/03/30 09:50:59;;;;;;;23.30;11.57;;;10.60;82.00;;;;;;4993552;28;20044;-82
2022/03/30 09:53:27;;;;;;;26.33;11.07;;;10.60;82.60;;;;;;4993657;28;20034;-82
2022/03/30 09:56:02;;;;;;;24.75;12.02;;;10.60;82.70;;;;;;4992937;28;20382;-82
2022/03/30 09:58:31;;;;;;;24.27;11.30;;;10.60;83.30;;;;;;5009003;28;20033;-82
2022/03/30 10:01:20;;;;;;;21.83;10.88;;;10.60;82.20;;;;;;5024675;28;20068;-83
2022/03/30 10:04:00;;;;;;;21.33;10.23;;;10.60;82.50;;;;;;5029942;28;20043;-85
2022/03/30 10:06:28;;;;;;;18.93;10.03;;;10.70;82.50;;;;;;5029674;28;20060;-77
2022/03/30 10:08:55;;;;;;;22.50;10.83;;;10.70;82.00;;;;;;5028333;28;20029;-82
2022/03/30 10:11:23;;;;;;;20.47;9.63;;;10.70;81.50;;;;;;5029289;28;20037;-82
2022/03/30 10:13:56;;;;;;;17.95;10.02;;;10.80;81.20;;;;;;5028924;28;20076;-81
2022/03/30 10:16:23;;;;;;;17.50;8.77;;;10.90;80.80;;;;;;5010768;28;20026;-81
2022/03/30 10:18:51;;;;;;;24.60;10.17;;;10.90;80.50;;;;;;5029507;28;20022;-82
2022/03/30 10:21:35;;;;;;;15.93;8.77;;;10.90;80.20;;;;;;5011695;28;20021;-82
2022/03/30 10:24:14;;;;;;;19.37;9.63;;;11.00;80.10;;;;;;5029470;28;20038;-82
2022/03/30 10:26:55;;;;;;;21.45;10.35;;;11.00;79.90;;;;;;5029045;28;20056;-82
2022/03/30 10:29:24;;;;;;;16.77;9.30;;;11.00;79.70;;;;;;5027709;28;20041;-82
2022/03/30 10:32:13;;;;;;;24.00;10.57;;;11.10;79.30;;;;;;5028953;28;20044;-81
2022/03/30 10:35:00;;;;;;;17.53;9.13;;;11.10;79.30;;;;;;5028691;28;20116;-82
2022/03/30 10:37:43;;;;;;;18.43;9.27;;;11.10;79.10;;;;;;5010962;28;20057;-82
2022/03/30 10:40:16;;;;;;;19.30;10.03;;;11.20;78.60;;;;;;5028173;28;20046;-81
2022/03/30 10:42:49;;;;;;;15.70;8.57;;;11.10;79.10;;;;;;5017772;28;20018;-81
2022/03/30 10:45:51;;;;;;;18.33;9.23;;;11.20;78.80;;;;;;5013129;28;20505;-81
2022/03/30 10:48:18;;;;;;;21.20;9.40;;;11.20;78.90;;;;;;5006954;28;20072;-82
2022/03/30 10:50:49;;;;;;;19.67;9.27;;;11.20;78.20;;;;;;5009121;28;20474;-83
2022/03/30 10:53:33;;;;;;;18.03;8.60;;;11.30;78.50;;;;;;5008846;28;20055;-84
2022/03/30 10:56:14;;;;;;;17.93;9.57;;;11.30;78.30;;;;;;4991366;28;20034;-83
2022/03/30 10:58:48;;;;;;;20.80;10.00;;;11.40;90.00;;;;;;5008545;28;20100;-84
2022/03/30 11:01:22;;;;;;;18.07;9.83;;;11.50;87.80;;;;;;5008556;28;20022;-79
2022/03/30 11:03:57;;;;;;;15.53;10.00;;;11.50;85.50;;;;;;5009215;28;20049;-82
2022/03/30 11:06:24;;;;;;;16.33;8.73;;;11.40;89.20;;;;;;5010310;28;20034;-85
2022/03/30 11:08:55;;;;;;;17.33;10.30;;;11.20;91.10;;;;;;5012514;28;20040;-85
2022/03/30 11:11:35;;;;;;;20.47;11.47;;;11.10;86.60;;;;;;5012213;28;20473;-85
2022/03/30 11:14:29;;;;;;;21.83;11.43;;;11.00;92.80;;;;;;5013184;28;20478;-81
2022/03/30 11:17:03;;;;;;;24.53;11.73;;;10.80;92.50;;;;;;5032573;28;20025;-81
2022/03/30 11:19:57;;;;;;;20.70;10.73;;;10.70;95.50;;;;;;5032544;28;20038;-81
2022/03/30 11:22:27;;;;;;;21.80;12.23;;;10.60;94.50;;;;;;5032493;28;20032;-81
2022/03/30 11:25:18;;;;;;;19.98;11.57;;;10.50;96.60;;;;;;5032280;28;20139;-82
2022/03/30 11:27:45;;;;;;;19.33;10.70;;;10.50;96.70;;;;;;5010639;28;20040;-81
2022/03/30 11:30:13;;;;;;;25.83;10.70;;;10.40;95.60;;;;;;5011922;28;20041;-81
2022/03/30 11:32:42;;;;;;;21.20;9.70;;;10.40;92.60;;;;;;5012476;28;20119;-81
2022/03/30 11:35:13;;;;;;;20.48;10.35;;;10.40;91.40;;;;;;5012363;28;20165;-82
2022/03/30 11:37:48;;;;;;;21.97;10.70;;;10.50;92.00;;;;;;5012553;28;20033;-81
2022/03/30 11:40:20;;;;;;;18.67;10.07;;;10.50;90.80;;;;;;5012634;28;20022;-81
2022/03/30 11:42:51;;;;;;;20.10;11.37;;;10.50;88.70;;;;;;5012196;28;20489;-81
2022/03/30 11:45:23;;;;;;;18.27;10.77;;;10.50;93.30;;;;;;5012512;28;20164;-81
2022/03/30 11:47:51;;;;;;;20.43;11.27;;;10.40;96.70;;;;;;5012308;28;20568;-81
2022/03/30 11:50:37;;;;;;;18.65;10.85;;;10.40;92.90;;;;;;5012799;28;20465;-81
2022/03/30 11:53:09;;;;;;;19.07;11.07;;;10.40;93.50;;;;;;5012203;28;20047;-81
2022/03/30 11:55:59;;;;;;;19.67;11.03;;;10.50;91.00;;;;;;5011041;28;20037;-81
2022/03/30 11:58:40;;;;;;;23.53;12.13;;;10.70;87.90;;;;;;4978078;28;20025;-81
2022/03/30 12:01:08;;;;;;;18.47;10.53;;;10.60;91.90;;;;;;5011708;28;20596;-81
2022/03/30 12:03:35;;;;;;;22.10;11.70;;;10.60;91.20;;;;;;5011849;28;20026;-81
2022/03/30 12:06:03;;;;;;;20.10;11.63;;;10.50;91.40;;;;;;5012192;28;20052;-82
2022/03/30 12:08:40;;;;;;;23.87;11.43;;;10.50;91.50;;;;;;5011786;28;20030;-84
2022/03/30 12:11:06;;;;;;;21.90;12.00;;;10.50;91.60;;;;;;5012092;28;20030;-84
2022/03/30 12:13:33;;;;;;;21.50;11.47;;;10.60;90.90;;;;;;5011216;28;20136;-84
2022/03/30 12:16:15;;;;;;;19.83;11.50;;;10.70;88.30;;;;;;5009920;28;20413;-84
2022/03/30 12:18:43;;;;;;;24.53;12.60;;;10.80;87.10;;;;;;4993359;28;20087;-84
2022/03/30 12:21:11;;;;;;;21.20;11.10;;;10.70;86.40;;;;;;5011402;28;20033;-80
2022/03/30 12:23:37;;;;;;;22.23;12.00;;;10.70;87.30;;;;;;5011434;28;20026;-83
2022/03/30 12:26:13;;;;;;;21.47;12.17;;;10.70;90.40;;;;;;5011717;28;20049;-83
2022/03/30 12:28:39;;;;;;;21.33;11.57;;;10.70;88.60;;;;;;5009802;28;20030;-83
2022/03/30 12:31:07;;;;;;;20.80;11.93;;;10.70;87.70;;;;;;5010910;28;20543;-83
2022/03/30 12:33:45;;;;;;;21.03;12.07;;;10.80;84.40;;;;;;4992876;23;20031;-74
2022/03/30 12:36:20;;;;;;;21.08;13.57;;;10.80;85.70;;;;;;4984043;28;20089;-73
2022/03/30 12:38:49;;;;;;;21.73;12.43;;;10.80;91.80;;;;;;4993838;28;20030;-73
2022/03/30 12:41:26;;;;;;;23.97;11.40;;;10.80;91.20;;;;;;4994367;28;20034;-72
2022/03/30 12:44:02;;;;;;;18.73;10.63;;;10.80;86.40;;;;;;4992027;28;20056;-73
2022/03/30 12:46:30;;;;;;;22.40;11.40;;;10.80;86.50;;;;;;4991175;28;20067;-74
2022/03/30 12:49:06;;;;;;;21.00;11.10;;;10.90;84.90;;;;;;4991948;28;20058;-74
2022/03/30 12:51:33;;;;;;;20.03;10.63;;;11.10;86.80;;;;;;4991442;28;20034;-73
2022/03/30 12:54:01;;;;;;;21.60;12.73;;;11.00;86.00;;;;;;4991973;28;20050;-74
2022/03/30 12:56:29;;;;;;;20.47;10.83;;;11.00;92.20;;;;;;4991470;28;20103;-74
2022/03/30 12:59:01;;;;;;;23.40;11.03;;;11.00;90.60;;;;;;4991815;28;20030;-74
2022/03/30 13:01:49;;;;;;;17.00;10.03;;;11.00;86.10;;;;;;4990718;28;20026;-73
2022/03/30 13:04:22;;;;;;;21.00;11.32;;;11.10;86.60;;;;;;4991319;28;20034;-74
2022/03/30 13:07:10;;;;;;;22.83;13.17;;;11.10;85.80;;;;;;4991024;28;20042;-74